createdAt,value
2019-03-24T05:01:00.939Z,0.00
2019-03-24T05:02:00.811Z,0.00
2019-03-24T05:03:53.489Z,0.00
2019-03-24T05:04:53.365Z,0.00
2019-03-24T05:06:46.018Z,0.00
2019-03-24T05:07:45.902Z,0.00
2019-03-24T05:09:38.576Z,0.00
2019-03-24T05:10:38.445Z,0.00
2019-03-24T05:12:31.107Z,0.00
2019-03-24T05:13:30.999Z,0.00
2019-03-24T05:15:23.673Z,5.63
2019-03-24T05:16:23.583Z,5.63
2019-03-24T05:18:16.202Z,5.63
2019-03-24T05:19:16.094Z,5.63
2019-03-24T05:21:08.766Z,11.25
2019-03-24T05:22:08.639Z,11.25
2019-03-24T05:24:01.300Z,11.25
2019-03-24T05:25:01.187Z,16.88
2019-03-24T05:26:53.859Z,16.88
2019-03-24T05:27:53.726Z,16.88
2019-03-24T05:29:46.387Z,22.50
2019-03-24T05:30:46.267Z,28.13
2019-03-24T05:32:38.957Z,28.13
2019-03-24T05:33:38.820Z,33.75
2019-03-24T05:35:31.483Z,39.38
2019-03-24T05:36:31.366Z,39.38
2019-03-24T05:38:24.044Z,45.00
2019-03-24T05:39:23.909Z,50.63
2019-03-24T05:41:16.570Z,56.25
2019-03-24T05:42:16.458Z,56.25
2019-03-24T05:44:09.131Z,61.88
2019-03-24T05:45:09.003Z,67.50
2019-03-24T05:47:01.655Z,73.13
2019-03-24T05:48:01.544Z,78.75
2019-03-24T05:49:54.222Z,84.38
2019-03-24T05:50:54.095Z,90.00
2019-03-24T05:52:46.754Z,95.63
2019-03-24T05:53:46.637Z,101.25
2019-03-24T05:55:39.309Z,101.25
2019-03-24T05:56:39.180Z,106.88
2019-03-24T05:58:31.840Z,106.88
2019-03-24T05:59:31.733Z,106.88
2019-03-24T06:01:24.408Z,112.50
2019-03-24T06:02:24.275Z,118.13
2019-03-24T06:04:16.956Z,123.75
2019-03-24T06:05:16.822Z,129.38
2019-03-24T06:07:09.483Z,129.38
2019-03-24T06:08:09.365Z,135.00
2019-03-24T06:10:02.073Z,140.63
2019-03-24T06:11:01.907Z,140.63
2019-03-24T06:12:54.567Z,151.88
2019-03-24T06:13:54.452Z,157.50
2019-03-24T06:15:47.129Z,163.13
2019-03-24T06:16:46.992Z,168.75
2019-03-24T06:18:39.658Z,174.38
2019-03-24T06:19:39.549Z,174.38
2019-03-24T06:21:32.216Z,185.63
2019-03-24T06:22:32.092Z,185.63
2019-03-24T06:24:24.752Z,191.25
2019-03-24T06:25:24.641Z,196.88
2019-03-24T06:27:17.309Z,196.88
2019-03-24T06:28:17.182Z,202.50
2019-03-24T06:30:09.863Z,208.13
2019-03-24T06:31:09.729Z,213.75
2019-03-24T06:33:02.387Z,219.38
2019-03-24T06:34:02.275Z,230.63
2019-03-24T06:35:54.966Z,236.25
2019-03-24T06:36:54.823Z,230.63
2019-03-24T06:38:47.486Z,230.63
2019-03-24T06:39:47.374Z,236.25
2019-03-24T06:41:40.058Z,236.25
2019-03-24T06:42:39.921Z,236.25
2019-03-24T06:44:32.586Z,241.88
2019-03-24T06:45:32.474Z,247.50
2019-03-24T06:47:25.150Z,253.13
2019-03-24T06:48:25.013Z,253.13
2019-03-24T06:50:17.675Z,258.75
2019-03-24T06:51:17.563Z,258.75
2019-03-24T06:53:10.239Z,270.00
2019-03-24T06:54:10.106Z,264.38
2019-03-24T06:56:02.768Z,281.25
2019-03-24T06:57:02.661Z,275.63
2019-03-24T06:58:55.341Z,286.88
2019-03-24T06:59:55.204Z,281.25
2019-03-24T07:01:47.866Z,286.88
2019-03-24T07:02:47.754Z,303.75
2019-03-24T07:04:40.480Z,320.63
2019-03-24T07:05:40.300Z,331.88
2019-03-24T07:07:32.959Z,326.25
2019-03-24T07:08:32.849Z,320.63
2019-03-24T07:10:25.528Z,331.88
2019-03-24T07:11:25.410Z,365.63
2019-03-24T07:13:18.056Z,393.75
2019-03-24T07:14:17.949Z,472.50
2019-03-24T07:16:10.622Z,466.88
2019-03-24T07:17:10.492Z,416.25
2019-03-24T07:19:03.150Z,433.13
2019-03-24T07:20:03.040Z,444.38
2019-03-24T07:21:55.720Z,556.88
2019-03-24T07:22:55.595Z,506.25
2019-03-24T07:24:48.280Z,489.38
2019-03-24T07:25:48.151Z,466.88
2019-03-24T07:27:40.818Z,523.13
2019-03-24T07:28:40.700Z,511.88
2019-03-24T07:30:33.385Z,489.38
2019-03-24T07:31:33.253Z,472.50
2019-03-24T07:33:25.931Z,483.75
2019-03-24T07:34:25.823Z,506.25
2019-03-24T07:36:18.500Z,613.13
2019-03-24T07:37:18.377Z,579.38
2019-03-24T07:39:11.039Z,630.00
2019-03-24T07:40:10.918Z,613.13
2019-03-24T07:42:05.531Z,579.38
2019-03-24T07:43:03.475Z,545.63
2019-03-24T07:44:56.141Z,579.38
2019-03-24T07:45:56.028Z,585.00
2019-03-24T07:47:49.133Z,635.63
2019-03-24T07:48:48.576Z,630.00
2019-03-24T07:50:41.240Z,579.38
2019-03-24T07:51:41.135Z,590.63
2019-03-24T07:53:33.818Z,545.63
2019-03-24T07:54:33.683Z,568.13
2019-03-24T07:56:26.343Z,618.75
2019-03-24T07:57:26.235Z,658.13
2019-03-24T07:59:18.918Z,613.13
2019-03-24T08:00:18.794Z,573.75
2019-03-24T08:02:11.463Z,450.00
2019-03-24T08:03:11.346Z,466.88
2019-03-24T08:05:04.025Z,500.63
2019-03-24T08:06:03.913Z,489.38
2019-03-24T08:07:56.570Z,517.50
2019-03-24T08:08:56.460Z,517.50
2019-03-24T08:10:49.133Z,562.50
2019-03-24T08:11:49.007Z,534.38
2019-03-24T08:13:52.924Z,495.00
2019-03-24T08:14:41.560Z,483.75
2019-03-24T08:16:34.251Z,388.13
2019-03-24T08:17:34.112Z,388.13
2019-03-24T08:19:26.783Z,388.13
2019-03-24T08:20:26.672Z,365.63
2019-03-24T08:22:19.351Z,360.00
2019-03-24T08:23:19.221Z,354.38
2019-03-24T08:25:11.887Z,343.13
2019-03-24T08:26:11.786Z,337.50
2019-03-24T08:28:04.449Z,331.88
2019-03-24T08:29:04.328Z,331.88
2019-03-24T08:30:56.990Z,337.50
2019-03-24T08:31:56.881Z,337.50
2019-03-24T08:33:49.565Z,337.50
2019-03-24T08:34:49.433Z,337.50
2019-03-24T08:36:42.098Z,337.50
2019-03-24T08:37:41.985Z,337.50
2019-03-24T08:39:34.664Z,337.50
2019-03-24T08:40:34.539Z,337.50
2019-03-24T08:42:27.201Z,343.13
2019-03-24T08:43:27.093Z,348.75
2019-03-24T08:45:19.779Z,354.38
2019-03-24T08:46:19.649Z,354.38
2019-03-24T08:48:12.325Z,348.75
2019-03-24T08:49:12.208Z,348.75
2019-03-24T08:51:04.892Z,343.13
2019-03-24T08:52:04.762Z,348.75
2019-03-24T08:53:57.418Z,343.13
2019-03-24T08:54:59.636Z,343.13
2019-03-24T08:56:49.995Z,343.13
2019-03-24T08:57:49.861Z,343.13
2019-03-24T08:59:42.525Z,348.75
2019-03-24T09:00:42.413Z,348.75
2019-03-24T09:02:35.095Z,354.38
2019-03-24T09:03:34.966Z,354.38
2019-03-24T09:05:27.624Z,348.75
2019-03-24T09:06:27.521Z,354.38
2019-03-24T09:08:20.201Z,354.38
2019-03-24T09:09:20.087Z,348.75
2019-03-24T09:11:12.732Z,343.13
2019-03-24T09:12:12.621Z,348.75
2019-03-24T09:14:05.310Z,354.38
2019-03-24T09:15:05.182Z,354.38
2019-03-24T09:16:57.845Z,348.75
2019-03-24T09:17:57.732Z,354.38
2019-03-24T09:19:50.414Z,354.38
2019-03-24T09:20:50.286Z,360.00
2019-03-24T09:22:42.954Z,371.25
2019-03-24T09:23:42.848Z,371.25
2019-03-24T09:25:35.579Z,376.88
2019-03-24T09:26:35.437Z,360.00
2019-03-24T09:28:28.063Z,376.88
2019-03-24T09:29:27.950Z,371.25
2019-03-24T09:31:20.632Z,360.00
2019-03-24T09:32:20.502Z,360.00
2019-03-24T09:34:13.168Z,365.63
2019-03-24T09:35:13.055Z,365.63
2019-03-24T09:37:05.729Z,365.63
2019-03-24T09:38:05.603Z,365.63
2019-03-24T09:39:58.270Z,354.38
2019-03-24T09:40:58.165Z,343.13
2019-03-24T09:42:50.859Z,354.38
2019-03-24T09:43:50.733Z,354.38
2019-03-24T09:45:43.396Z,360.00
2019-03-24T09:46:43.285Z,360.00
2019-03-24T09:48:35.974Z,360.00
2019-03-24T09:49:35.839Z,360.00
2019-03-24T09:51:28.506Z,388.13
2019-03-24T09:52:28.393Z,410.63
2019-03-24T09:54:21.075Z,421.88
2019-03-24T09:55:20.946Z,427.50
2019-03-24T09:57:13.607Z,421.88
2019-03-24T09:58:13.507Z,405.00
2019-03-24T10:00:06.177Z,393.75
2019-03-24T10:01:06.053Z,393.75
2019-03-24T10:02:58.714Z,416.25
2019-03-24T10:03:58.604Z,410.63
2019-03-24T10:05:51.291Z,393.75
2019-03-24T10:06:51.154Z,405.00
2019-03-24T10:08:47.353Z,410.63
2019-03-24T10:09:43.708Z,410.63
2019-03-24T10:11:36.391Z,416.25
2019-03-24T10:12:36.268Z,421.88
2019-03-24T10:14:28.935Z,421.88
2019-03-24T10:15:28.819Z,427.50
2019-03-24T10:17:21.506Z,438.75
2019-03-24T10:18:21.377Z,450.00
2019-03-24T10:20:14.586Z,433.13
2019-03-24T10:21:14.542Z,433.13
2019-03-24T10:23:07.156Z,483.75
2019-03-24T10:24:08.005Z,540.00
2019-03-24T10:25:59.701Z,579.38
2019-03-24T10:26:59.591Z,607.50
2019-03-24T10:28:52.286Z,686.25
2019-03-24T10:29:52.159Z,725.63
2019-03-24T10:31:44.845Z,798.75
2019-03-24T10:32:44.716Z,815.63
2019-03-24T10:34:37.392Z,838.13
2019-03-24T10:35:37.283Z,832.50
2019-03-24T10:37:29.974Z,832.50
2019-03-24T10:38:29.843Z,843.75
2019-03-24T10:40:28.519Z,849.38
2019-03-24T10:41:22.411Z,883.13
2019-03-24T10:43:15.102Z,928.13
2019-03-24T10:44:14.985Z,922.50
2019-03-24T10:46:07.655Z,911.25
2019-03-24T10:47:07.549Z,911.25
2019-03-24T10:49:00.241Z,894.38
2019-03-24T10:50:00.307Z,871.88
2019-03-24T10:51:52.817Z,877.50
2019-03-24T10:52:52.720Z,894.38
2019-03-24T10:54:45.394Z,916.88
2019-03-24T10:55:45.275Z,922.50
2019-03-24T10:57:37.952Z,933.75
2019-03-24T10:58:37.843Z,905.63
2019-03-24T11:00:31.061Z,849.38
2019-03-24T11:01:30.924Z,826.88
2019-03-24T11:03:23.595Z,821.25
2019-03-24T11:04:23.490Z,826.88
2019-03-24T11:06:16.187Z,849.38
2019-03-24T11:07:16.061Z,838.13
2019-03-24T11:09:08.735Z,787.50
2019-03-24T11:10:08.638Z,770.63
2019-03-24T11:12:01.324Z,742.50
2019-03-24T11:13:01.198Z,748.13
2019-03-24T11:14:54.362Z,742.50
2019-03-24T11:15:54.261Z,736.88
2019-03-24T11:17:46.955Z,736.88
2019-03-24T11:18:46.849Z,731.25
2019-03-24T11:20:39.504Z,725.63
2019-03-24T11:21:39.418Z,720.00
2019-03-24T11:23:32.088Z,703.13
2019-03-24T11:24:31.964Z,703.13
2019-03-24T11:26:24.643Z,736.88
2019-03-24T11:27:24.533Z,742.50
2019-03-24T11:29:17.226Z,731.25
2019-03-24T11:30:17.127Z,708.75
2019-03-24T11:32:09.793Z,686.25
2019-03-24T11:33:09.684Z,686.25
2019-03-24T11:35:02.382Z,697.50
2019-03-24T11:36:02.255Z,697.50
2019-03-24T11:37:54.931Z,703.13
2019-03-24T11:38:54.819Z,691.88
2019-03-24T11:40:47.520Z,675.00
2019-03-24T11:41:47.418Z,680.63
2019-03-24T11:43:40.073Z,646.88
2019-03-24T11:44:40.020Z,658.13
2019-03-24T11:46:33.154Z,646.88
2019-03-24T11:47:33.030Z,652.50
2019-03-24T11:49:25.702Z,641.25
2019-03-24T11:50:25.599Z,652.50
2019-03-24T11:52:18.283Z,658.13
2019-03-24T11:53:18.159Z,663.75
2019-03-24T11:55:10.828Z,686.25
2019-03-24T11:56:10.730Z,675.00
2019-03-24T11:58:05.959Z,663.75
2019-03-24T11:59:03.295Z,675.00
2019-03-24T12:00:55.988Z,686.25
2019-03-24T12:01:55.874Z,703.13
2019-03-24T12:03:48.590Z,686.25
2019-03-24T12:04:48.465Z,675.00
2019-03-24T12:06:41.149Z,675.00
2019-03-24T12:07:41.039Z,675.00
2019-03-24T12:09:33.739Z,675.00
2019-03-24T12:10:33.614Z,669.38
2019-03-24T12:12:26.278Z,675.00
2019-03-24T12:13:26.178Z,675.00
2019-03-24T12:15:18.866Z,646.88
2019-03-24T12:16:18.739Z,641.25
2019-03-24T12:18:11.417Z,607.50
2019-03-24T12:19:11.307Z,590.63
2019-03-24T12:21:03.997Z,568.13
2019-03-24T12:22:03.874Z,540.00
2019-03-24T12:23:56.561Z,517.50
2019-03-24T12:24:56.453Z,506.25
2019-03-24T12:26:49.134Z,483.75
2019-03-24T12:27:49.027Z,489.38
2019-03-24T12:29:41.694Z,495.00
2019-03-24T12:30:41.589Z,483.75
2019-03-24T12:32:34.283Z,483.75
2019-03-24T12:33:34.147Z,483.75
2019-03-24T12:35:26.860Z,472.50
2019-03-24T12:36:26.723Z,444.38
2019-03-24T12:38:19.425Z,421.88
2019-03-24T12:39:19.299Z,410.63
2019-03-24T12:41:11.978Z,421.88
2019-03-24T12:42:11.863Z,427.50
2019-03-24T12:44:04.592Z,410.63
2019-03-24T12:45:04.455Z,393.75
2019-03-24T12:46:57.119Z,354.38
2019-03-24T12:47:57.016Z,343.13
2019-03-24T12:49:49.699Z,309.38
2019-03-24T12:50:49.579Z,298.13
2019-03-24T12:52:42.252Z,315.00
2019-03-24T12:53:42.142Z,320.63
2019-03-24T12:55:34.824Z,337.50
2019-03-24T12:56:34.700Z,337.50
2019-03-24T12:58:27.375Z,326.25
2019-03-24T12:59:27.267Z,320.63
2019-03-24T13:01:20.027Z,309.38
2019-03-24T13:02:19.831Z,309.38
2019-03-24T13:04:12.505Z,303.75
2019-03-24T13:05:12.392Z,303.75
2019-03-24T13:07:05.076Z,303.75
2019-03-24T13:08:05.296Z,303.75
2019-03-24T13:09:57.633Z,303.75
2019-03-24T13:10:57.510Z,303.75
2019-03-24T13:12:50.269Z,303.75
2019-03-24T13:13:50.075Z,309.38
2019-03-24T13:15:42.773Z,303.75
2019-03-24T13:16:42.638Z,320.63
2019-03-24T13:18:35.304Z,331.88
2019-03-24T13:19:36.235Z,320.63
2019-03-24T13:21:27.888Z,331.88
2019-03-24T13:22:27.764Z,337.50
2019-03-24T13:24:20.434Z,331.88
2019-03-24T13:25:20.328Z,337.50
2019-03-24T13:27:13.009Z,360.00
2019-03-24T13:28:12.888Z,326.25
2019-03-24T13:30:05.553Z,376.88
2019-03-24T13:31:05.448Z,382.50
2019-03-24T13:32:58.147Z,410.63
2019-03-24T13:33:58.019Z,427.50
2019-03-24T13:35:50.690Z,438.75
2019-03-24T13:36:50.581Z,450.00
2019-03-24T13:38:43.266Z,478.13
2019-03-24T13:39:43.135Z,495.00
2019-03-24T13:41:35.808Z,500.63
2019-03-24T13:42:35.703Z,478.13
2019-03-24T13:44:28.410Z,455.63
2019-03-24T13:45:28.270Z,478.13
2019-03-24T13:47:20.944Z,450.00
2019-03-24T13:48:20.833Z,438.75
2019-03-24T13:50:13.539Z,427.50
2019-03-24T13:51:13.455Z,416.25
2019-03-24T13:53:06.092Z,388.13
2019-03-24T13:54:05.986Z,376.88
2019-03-24T13:55:58.676Z,354.38
2019-03-24T13:56:58.554Z,343.13
2019-03-24T13:58:51.225Z,331.88
2019-03-24T13:59:51.118Z,331.88
2019-03-24T14:01:44.057Z,309.38
2019-03-24T14:02:43.695Z,292.50
2019-03-24T14:04:36.348Z,270.00
2019-03-24T14:05:36.243Z,298.13
2019-03-24T14:07:28.930Z,298.13
2019-03-24T14:08:28.808Z,309.38
2019-03-24T14:10:21.479Z,275.63
2019-03-24T14:11:24.075Z,298.13
2019-03-24T14:13:14.057Z,292.50
2019-03-24T14:14:13.935Z,292.50
2019-03-24T14:16:06.595Z,292.50
2019-03-24T14:17:06.495Z,292.50
2019-03-24T14:18:59.173Z,286.88
2019-03-24T14:19:59.046Z,286.88
2019-03-24T14:21:51.716Z,286.88
2019-03-24T14:22:51.613Z,286.88
2019-03-24T14:24:44.299Z,281.25
2019-03-24T14:25:44.170Z,281.25
2019-03-24T14:27:36.845Z,286.88
2019-03-24T14:28:36.728Z,281.25
2019-03-24T14:30:29.421Z,281.25
2019-03-24T14:31:29.290Z,281.25
2019-03-24T14:33:21.969Z,275.63
2019-03-24T14:34:21.854Z,275.63
2019-03-24T14:36:14.553Z,275.63
2019-03-24T14:37:14.419Z,275.63
2019-03-24T14:39:07.087Z,275.63
2019-03-24T14:40:06.978Z,275.63
2019-03-24T14:41:59.690Z,275.63
2019-03-24T14:42:59.551Z,275.63
2019-03-24T14:44:52.222Z,275.63
2019-03-24T14:45:52.117Z,275.63
2019-03-24T14:47:44.858Z,270.00
2019-03-24T14:48:44.690Z,270.00
2019-03-24T14:50:37.361Z,264.38
2019-03-24T14:51:37.272Z,264.38
2019-03-24T14:53:29.939Z,264.38
2019-03-24T14:54:29.807Z,258.75
2019-03-24T14:56:22.490Z,258.75
2019-03-24T14:57:22.379Z,258.75
2019-03-24T14:59:15.076Z,253.13
2019-03-24T15:00:14.941Z,253.13
2019-03-24T15:02:07.619Z,253.13
2019-03-24T15:03:07.513Z,253.13
2019-03-24T15:05:00.350Z,253.13
2019-03-24T15:06:00.093Z,247.50
2019-03-24T15:07:52.776Z,247.50
2019-03-24T15:08:52.638Z,247.50
2019-03-24T15:10:45.315Z,247.50
2019-03-24T15:11:45.212Z,241.88
2019-03-24T15:13:38.007Z,236.25
2019-03-24T15:14:37.800Z,241.88
2019-03-24T15:16:30.480Z,236.25
2019-03-24T15:17:30.369Z,236.25
2019-03-24T15:19:23.054Z,236.25
2019-03-24T15:20:22.938Z,236.25
2019-03-24T15:22:15.601Z,230.63
2019-03-24T15:23:15.488Z,230.63
2019-03-24T15:25:08.209Z,230.63
2019-03-24T15:26:08.053Z,230.63
2019-03-24T15:28:00.717Z,230.63
2019-03-24T15:29:00.604Z,225.00
2019-03-24T15:30:53.299Z,225.00
2019-03-24T15:31:53.174Z,225.00
2019-03-24T15:33:45.867Z,225.00
2019-03-24T15:34:45.811Z,219.38
2019-03-24T15:36:38.469Z,219.38
2019-03-24T15:37:38.310Z,219.38
2019-03-24T15:39:30.974Z,213.75
2019-03-24T15:40:30.863Z,213.75
2019-03-24T15:42:23.593Z,213.75
2019-03-24T15:43:23.423Z,213.75
2019-03-24T15:45:16.090Z,208.13
2019-03-24T15:46:15.987Z,208.13
2019-03-24T15:48:08.658Z,208.13
2019-03-24T15:49:08.539Z,208.13
2019-03-24T15:51:01.213Z,202.50
2019-03-24T15:52:01.101Z,202.50
2019-03-24T15:53:53.786Z,196.88
2019-03-24T15:54:53.669Z,196.88
2019-03-24T15:56:46.333Z,196.88
2019-03-24T15:57:46.224Z,196.88
2019-03-24T15:59:38.953Z,191.25
2019-03-24T16:00:38.809Z,191.25
2019-03-24T16:02:31.473Z,185.63
2019-03-24T16:03:31.363Z,185.63
2019-03-24T16:05:24.107Z,185.63
2019-03-24T16:06:24.014Z,185.63
2019-03-24T16:08:16.650Z,180.00
2019-03-24T16:09:16.547Z,180.00
2019-03-24T16:11:09.223Z,180.00
2019-03-24T16:12:09.100Z,180.00
2019-03-24T16:14:01.775Z,174.38
2019-03-24T16:15:01.661Z,174.38
2019-03-24T16:16:54.356Z,168.75
2019-03-24T16:17:54.219Z,168.75
2019-03-24T16:19:47.164Z,168.75
2019-03-24T16:20:47.056Z,163.13
2019-03-24T16:22:39.761Z,163.13
2019-03-24T16:23:39.630Z,163.13
2019-03-24T16:25:32.297Z,157.50
2019-03-24T16:26:32.196Z,157.50
2019-03-24T16:28:24.875Z,151.88
2019-03-24T16:29:24.773Z,151.88
2019-03-24T16:31:17.426Z,151.88
2019-03-24T16:32:17.310Z,146.25
2019-03-24T16:34:09.999Z,146.25
2019-03-24T16:35:09.870Z,140.63
2019-03-24T16:37:02.531Z,140.63
2019-03-24T16:38:02.415Z,140.63
2019-03-24T16:39:55.120Z,135.00
2019-03-24T16:40:54.992Z,135.00
2019-03-24T16:42:47.652Z,129.38
2019-03-24T16:43:47.536Z,129.38
2019-03-24T16:45:40.234Z,129.38
2019-03-24T16:46:40.103Z,129.38
2019-03-24T16:48:37.031Z,123.75
2019-03-24T16:49:32.654Z,123.75
2019-03-24T16:51:25.356Z,118.13
2019-03-24T16:52:25.226Z,118.13
2019-03-24T16:54:17.899Z,112.50
2019-03-24T16:55:17.778Z,112.50
2019-03-24T16:57:10.464Z,106.88
2019-03-24T16:58:10.341Z,106.88
2019-03-24T17:00:03.504Z,101.25
2019-03-24T17:01:03.390Z,101.25
2019-03-24T17:02:56.081Z,95.63
2019-03-24T17:03:55.949Z,95.63
2019-03-24T17:05:48.618Z,90.00
2019-03-24T17:06:48.511Z,90.00
2019-03-24T17:08:41.190Z,84.38
2019-03-24T17:09:41.059Z,84.38
2019-03-24T17:11:33.741Z,78.75
2019-03-24T17:12:33.630Z,78.75
2019-03-24T17:14:26.314Z,67.50
2019-03-24T17:15:26.184Z,67.50
2019-03-24T17:17:18.869Z,61.88
2019-03-24T17:18:18.748Z,61.88
2019-03-24T17:20:11.401Z,56.25
2019-03-24T17:21:11.291Z,56.25
2019-03-24T17:23:03.968Z,56.25
2019-03-24T17:24:03.844Z,50.63
2019-03-24T17:25:56.512Z,45.00
2019-03-24T17:26:56.400Z,45.00
2019-03-24T17:28:49.080Z,45.00
2019-03-24T17:29:48.955Z,39.38
2019-03-24T17:31:41.623Z,39.38
2019-03-24T17:32:41.513Z,33.75
2019-03-24T17:34:34.192Z,33.75
2019-03-24T17:35:34.067Z,28.13
2019-03-24T17:37:26.735Z,28.13
2019-03-24T17:38:26.622Z,22.50
2019-03-24T17:40:19.307Z,22.50
2019-03-24T17:41:19.177Z,22.50
2019-03-24T17:43:11.843Z,16.88
2019-03-24T17:44:12.793Z,16.88
2019-03-24T17:46:04.408Z,11.25
2019-03-24T17:47:04.278Z,11.25
2019-03-24T17:48:56.945Z,11.25
2019-03-24T17:49:56.831Z,11.25
2019-03-24T17:52:00.210Z,5.63
2019-03-24T17:52:49.392Z,5.63
2019-03-24T17:54:42.054Z,5.63
2019-03-24T17:55:41.943Z,5.63
2019-03-24T17:57:34.630Z,0.00
2019-03-24T17:58:34.497Z,0.00
2019-03-24T18:00:27.181Z,0.00
2019-03-24T18:01:27.057Z,0.00
2019-03-24T18:03:19.741Z,0.00
2019-03-24T18:04:24.597Z,0.00
2019-03-24T18:06:12.282Z,0.00
2019-03-24T18:07:12.165Z,0.00
2019-03-24T18:09:04.846Z,0.00
2019-03-24T18:10:04.720Z,0.00
2019-03-24T18:11:57.381Z,0.00
2019-03-24T18:12:57.267Z,0.00
2019-03-24T18:14:49.950Z,0.00
2019-03-24T18:15:49.820Z,0.00
2019-03-24T18:17:42.486Z,0.00
2019-03-24T18:18:42.370Z,0.00
2019-03-24T18:20:35.059Z,0.00
2019-03-24T18:21:34.924Z,0.00
2019-03-24T18:23:27.593Z,0.00
2019-03-24T18:24:27.484Z,0.00
2019-03-24T18:26:20.161Z,0.00
2019-03-24T18:27:20.024Z,0.00
2019-03-24T18:29:12.703Z,0.00
2019-03-24T18:30:12.592Z,0.00
2019-03-24T18:32:05.268Z,0.00
2019-03-24T18:33:05.137Z,0.00
2019-03-24T18:34:57.797Z,0.00
2019-03-24T18:35:57.681Z,0.00
2019-03-24T18:37:50.382Z,0.00
2019-03-24T18:38:50.242Z,0.00
2019-03-24T18:40:42.911Z,0.00
2019-03-24T18:41:42.802Z,0.00
2019-03-24T18:43:35.477Z,0.00
2019-03-24T18:44:35.361Z,0.00
2019-03-24T18:46:28.017Z,0.00
2019-03-24T18:47:27.898Z,0.00
2019-03-24T18:49:20.595Z,0.00
2019-03-24T18:50:20.456Z,0.00
2019-03-24T18:52:22.252Z,0.00
2019-03-24T18:53:13.007Z,0.00
2019-03-24T18:55:05.758Z,0.00
2019-03-24T18:56:05.623Z,0.00
2019-03-24T18:57:58.294Z,0.00
2019-03-24T18:58:58.176Z,0.00
2019-03-24T19:00:50.860Z,0.00
2019-03-24T19:01:50.732Z,0.00
2019-03-24T19:03:43.392Z,0.00
2019-03-24T19:04:43.285Z,0.00
2019-03-24T19:06:35.961Z,0.00
2019-03-24T19:07:35.837Z,0.00
2019-03-24T19:09:28.502Z,0.00
2019-03-24T19:10:28.385Z,0.00
2019-03-24T19:12:21.067Z,0.00
2019-03-24T19:13:20.935Z,0.00
2019-03-24T19:15:13.596Z,0.00
2019-03-24T19:16:13.479Z,0.00
2019-03-24T19:18:06.166Z,0.00
2019-03-24T19:19:06.029Z,0.00
2019-03-24T19:20:58.697Z,0.00
2019-03-24T19:21:58.587Z,0.00
2019-03-24T19:23:51.265Z,0.00
2019-03-24T19:24:51.137Z,0.00
2019-03-24T19:26:43.796Z,0.00
2019-03-24T19:27:43.681Z,0.00
2019-03-24T19:29:36.396Z,0.00
2019-03-24T19:30:36.252Z,0.00
2019-03-24T19:32:28.919Z,0.00
2019-03-24T19:33:29.760Z,0.00
2019-03-24T19:35:21.481Z,0.00
2019-03-24T19:36:21.360Z,0.00
2019-03-24T19:38:14.021Z,0.00
2019-03-24T19:39:13.912Z,0.00
2019-03-24T19:41:06.587Z,0.00
2019-03-24T19:42:06.458Z,0.00
2019-03-24T19:43:59.120Z,0.00
2019-03-24T19:44:59.012Z,0.00
2019-03-24T19:46:51.686Z,0.00
2019-03-24T19:47:51.558Z,0.00
2019-03-24T19:49:44.222Z,0.00
2019-03-24T19:50:44.109Z,0.00
2019-03-24T19:52:44.538Z,0.00
2019-03-24T19:53:36.653Z,0.00
2019-03-24T19:55:29.811Z,0.00
2019-03-24T19:56:29.694Z,0.00
2019-03-24T19:58:22.377Z,0.00
2019-03-24T19:59:22.248Z,0.00
2019-03-24T20:01:14.937Z,0.00
2019-03-24T20:02:14.796Z,0.00
2019-03-24T20:04:07.456Z,0.00
2019-03-24T20:05:07.377Z,0.00
2019-03-24T20:07:00.028Z,0.00
2019-03-24T20:07:59.894Z,0.00
2019-03-24T20:09:52.596Z,0.00
2019-03-24T20:10:52.447Z,0.00
2019-03-24T20:12:45.133Z,0.00
2019-03-24T20:13:44.997Z,0.00
2019-03-24T20:15:37.670Z,0.00
2019-03-24T20:16:37.556Z,0.00
2019-03-24T20:18:30.248Z,0.00
2019-03-24T20:19:30.120Z,0.00
2019-03-24T20:21:22.783Z,0.00
2019-03-24T20:22:22.676Z,0.00
2019-03-24T20:24:15.352Z,0.00
2019-03-24T20:25:15.228Z,0.00
2019-03-24T20:27:07.887Z,0.00
2019-03-24T20:28:07.769Z,0.00
2019-03-24T20:30:00.455Z,0.00
2019-03-24T20:31:00.318Z,0.00
2019-03-24T20:32:52.980Z,0.00
2019-03-24T20:33:52.874Z,0.00
2019-03-24T20:35:45.550Z,0.00
2019-03-24T20:36:45.425Z,0.00
2019-03-24T20:38:38.082Z,0.00
2019-03-24T20:39:37.974Z,0.00
2019-03-24T20:41:30.658Z,0.00
2019-03-24T20:42:30.536Z,0.00
2019-03-24T20:44:23.191Z,0.00
2019-03-24T20:45:23.080Z,0.00
2019-03-24T20:47:15.969Z,0.00
2019-03-24T20:48:15.629Z,0.00
2019-03-24T20:50:08.284Z,0.00
2019-03-24T20:51:08.176Z,0.00
2019-03-24T20:53:05.760Z,0.00
2019-03-24T20:54:00.742Z,0.00
2019-03-24T20:55:53.435Z,0.00
2019-03-24T20:56:53.266Z,0.00
2019-03-24T20:58:45.951Z,0.00
2019-03-24T20:59:45.833Z,0.00
2019-03-24T21:01:38.478Z,0.00
2019-03-24T21:02:38.360Z,0.00
2019-03-24T21:04:31.042Z,0.00
2019-03-24T21:05:30.916Z,0.00
2019-03-24T21:07:23.577Z,0.00
2019-03-24T21:08:23.465Z,0.00
2019-03-24T21:10:16.139Z,0.00
2019-03-24T21:11:16.006Z,0.00
2019-03-24T21:13:08.688Z,0.00
2019-03-24T21:14:08.578Z,0.00
2019-03-24T21:16:01.755Z,0.00
2019-03-24T21:17:01.635Z,0.00
2019-03-24T21:18:54.291Z,0.00
2019-03-24T21:19:54.179Z,0.00
2019-03-24T21:21:46.861Z,0.00
2019-03-24T21:22:46.732Z,0.00
2019-03-24T21:24:39.892Z,0.00
2019-03-24T21:25:39.803Z,0.00
2019-03-24T21:27:32.457Z,0.00
2019-03-24T21:28:32.324Z,0.00
2019-03-24T21:30:24.993Z,0.00
2019-03-24T21:31:24.871Z,0.00
2019-03-24T21:33:17.554Z,0.00
2019-03-24T21:34:17.424Z,0.00
2019-03-24T21:36:10.085Z,0.00
2019-03-24T21:37:09.977Z,0.00
2019-03-24T21:39:02.649Z,0.00
2019-03-24T21:40:02.522Z,0.00
2019-03-24T21:41:55.199Z,0.00
2019-03-24T21:42:55.067Z,0.00
2019-03-24T21:44:47.749Z,0.00
2019-03-24T21:45:47.613Z,0.00
2019-03-24T21:47:40.272Z,0.00
2019-03-24T21:48:40.167Z,0.00
2019-03-24T21:50:32.847Z,0.00
2019-03-24T21:51:32.707Z,0.00
2019-03-24T21:53:25.370Z,0.00
2019-03-24T21:54:25.258Z,0.00
2019-03-24T21:56:17.931Z,0.00
2019-03-24T21:57:17.801Z,0.00
2019-03-24T21:59:10.464Z,0.00
2019-03-24T22:00:10.352Z,0.00
2019-03-24T22:02:03.053Z,0.00
2019-03-24T22:03:02.894Z,0.00
2019-03-24T22:04:56.033Z,0.00
2019-03-24T22:05:55.445Z,0.00
2019-03-24T22:07:48.120Z,0.00
2019-03-24T22:08:47.991Z,0.00
2019-03-24T22:10:40.650Z,0.00
2019-03-24T22:11:40.538Z,0.00
2019-03-24T22:13:33.226Z,0.00
2019-03-24T22:14:33.159Z,0.00
2019-03-24T22:16:25.756Z,0.00
2019-03-24T22:17:25.648Z,0.00
2019-03-24T22:19:18.312Z,0.00
2019-03-24T22:20:18.187Z,0.00
2019-03-24T22:22:10.849Z,0.00
2019-03-24T22:23:10.733Z,0.00
2019-03-24T22:25:03.406Z,0.00
2019-03-24T22:26:03.280Z,0.00
2019-03-24T22:27:55.941Z,0.00
2019-03-24T22:28:55.828Z,0.00
2019-03-24T22:30:48.524Z,0.00
2019-03-24T22:31:48.397Z,0.00
2019-03-24T22:33:41.083Z,0.00
2019-03-24T22:34:40.943Z,0.00
2019-03-24T22:36:33.609Z,0.00
2019-03-24T22:37:33.487Z,0.00
2019-03-24T22:39:26.171Z,0.00
2019-03-24T22:40:26.044Z,0.00
2019-03-24T22:42:18.700Z,0.00
2019-03-24T22:43:18.583Z,0.00
2019-03-24T22:45:11.767Z,0.00
2019-03-24T22:46:11.627Z,0.00
2019-03-24T22:48:04.288Z,0.00
2019-03-24T22:49:04.180Z,0.00
2019-03-24T22:50:56.861Z,0.00
2019-03-24T22:52:06.901Z,0.00
2019-03-24T22:53:49.383Z,0.00
2019-03-24T22:54:49.265Z,0.00
2019-03-24T22:56:41.965Z,0.00
2019-03-24T22:57:41.815Z,0.00
2019-03-24T22:59:34.474Z,0.00
